MGGT/GUA METAR and TAF weather

Enter ICAO airport designator
Station Type Date Time Source
MGGT METAR 2019/12/07 05:00 UTC NOAA

MGGT 070500Z 36016KT 9999 SCT015 16/14 Q1030 A3042


Station Type Date Time Source
MGGT Decoded METAR 2019/12/07 05:00 UTC NOAA

Guatemala Aeropuertola Aurora , Guatemala (MGGT) 14-35N 090-31W 1489M
Dec 07, 2019 - 12:00 AM EST / 2019.12.07 0500 UTC
Wind: from the N (360 degrees) at 18 MPH (16 KT):0
Visibility: greater than 7 mile(s):0
Sky conditions: partly cloudy
Temperature: 60 F (16 C)
Dew Point: 57 F (14 C)
Relative Humidity: 87%
Pressure (altimeter): 30.42 in. Hg (1030 hPa)
ob: MGGT 070500Z 36016KT 9999 SCT015 16/14 Q1030 A3042
cycle: 5

Station Type Date Time Source
MGGT TAF 2019/12/07 06:03 UTC NOAA

TAF TAF MGGT 070500Z 0706/0806 36014KT 9999 SCT014 TX25/0720Z TN13/0712Z
BECMG 0715/0717 SCT018
TEMPO 0720/0724 FEW018

Example: see airport list